createdAt,value
2017-07-25T00:01:44.403Z,5.90
2017-07-25T00:04:11.881Z,7.63
2017-07-25T00:06:39.342Z,7.03
2017-07-25T00:09:06.839Z,6.20
2017-07-25T00:11:34.302Z,6.60
2017-07-25T00:14:01.764Z,6.53
2017-07-25T00:16:29.240Z,6.13
2017-07-25T00:18:56.711Z,6.60
2017-07-25T00:21:24.179Z,7.90
2017-07-25T00:23:51.647Z,7.30
2017-07-25T00:26:19.123Z,7.57
2017-07-25T00:28:46.621Z,6.20
2017-07-25T00:31:14.104Z,8.27
2017-07-25T00:33:41.579Z,7.17
2017-07-25T00:36:09.043Z,8.00
2017-07-25T00:38:37.279Z,7.20
2017-07-25T00:41:04.751Z,7.73
2017-07-25T00:43:32.213Z,7.87
2017-07-25T00:45:59.704Z,8.60
2017-07-25T00:48:28.004Z,7.90
2017-07-25T00:50:55.467Z,7.97
2017-07-25T00:53:22.928Z,8.07
2017-07-25T00:55:50.387Z,8.40
2017-07-25T00:58:17.866Z,8.90
2017-07-25T01:00:45.352Z,8.20
2017-07-25T01:03:13.583Z,9.60
2017-07-25T01:05:41.090Z,8.40
2017-07-25T01:08:09.331Z,7.90
2017-07-25T01:10:36.833Z,10.20
2017-07-25T01:13:04.313Z,10.83
2017-07-25T01:15:31.772Z,10.93
2017-07-25T01:17:59.387Z,10.63
2017-07-25T01:20:26.884Z,9.47
2017-07-25T01:22:54.363Z,11.13
2017-07-25T01:25:21.835Z,11.17
2017-07-25T01:27:49.364Z,11.13
2017-07-25T01:30:16.826Z,12.17
2017-07-25T01:32:44.304Z,10.50
2017-07-25T01:35:11.778Z,12.40
2017-07-25T01:37:39.244Z,12.13
2017-07-25T01:40:07.479Z,13.47
2017-07-25T01:42:34.955Z,11.40
2017-07-25T01:45:02.418Z,10.03
2017-07-25T01:47:29.878Z,11.70
2017-07-25T01:49:57.349Z,10.87
2017-07-25T01:52:24.804Z,10.97
2017-07-25T01:54:53.034Z,12.17
2017-07-25T01:57:20.504Z,10.97
2017-07-25T01:59:47.972Z,12.33
2017-07-25T02:02:15.455Z,11.57
2017-07-25T02:04:42.987Z,11.13
2017-07-25T02:07:10.447Z,12.10
2017-07-25T02:09:37.931Z,12.27
2017-07-25T02:12:05.391Z,12.33
2017-07-25T02:14:32.855Z,10.83
2017-07-25T02:17:00.337Z,11.77
2017-07-25T02:19:27.789Z,9.77
2017-07-25T02:21:55.266Z,11.20
2017-07-25T02:24:22.739Z,10.93
2017-07-25T02:26:50.217Z,11.20
2017-07-25T02:29:18.468Z,11.40
2017-07-25T02:31:45.931Z,10.13
2017-07-25T02:34:13.426Z,11.47
2017-07-25T02:36:40.905Z,11.43
2017-07-25T02:39:08.386Z,11.90
2017-07-25T02:41:35.869Z,10.77
2017-07-25T02:44:03.389Z,10.67
2017-07-25T02:46:30.850Z,11.67
2017-07-25T02:48:58.330Z,12.10
2017-07-25T02:51:25.807Z,11.90
2017-07-25T02:53:54.051Z,12.60
2017-07-25T02:56:21.524Z,12.03
2017-07-25T02:58:49.002Z,12.00
2017-07-25T03:01:17.247Z,11.13
2017-07-25T03:03:44.734Z,12.90
2017-07-25T03:06:12.224Z,13.33
2017-07-25T03:08:39.690Z,12.20
2017-07-25T03:11:07.169Z,10.80
2017-07-25T03:13:34.643Z,11.40
2017-07-25T03:16:02.103Z,11.80
2017-07-25T03:18:29.570Z,11.33
2017-07-25T03:20:57.819Z,11.27
2017-07-25T03:23:37.049Z,10.60
2017-07-25T03:26:04.524Z,10.43
2017-07-25T03:28:32.756Z,9.27
2017-07-25T03:31:00.231Z,11.27
2017-07-25T03:33:27.686Z,12.07
2017-07-25T03:35:55.164Z,10.27
2017-07-25T03:38:22.625Z,9.50
2017-07-25T03:40:50.854Z,10.47
2017-07-25T03:43:18.337Z,12.13
2017-07-25T03:45:45.822Z,12.50
2017-07-25T03:48:14.060Z,13.30
2017-07-25T03:50:41.544Z,13.67
2017-07-25T03:53:09.014Z,13.80
2017-07-25T03:55:37.251Z,12.57
2017-07-25T03:58:04.719Z,10.63
2017-07-25T04:00:32.195Z,10.80
2017-07-25T04:03:00.427Z,8.73
2017-07-25T04:05:28.831Z,9.17
2017-07-25T04:07:56.507Z,9.50
2017-07-25T04:10:24.733Z,8.07
2017-07-25T04:12:52.219Z,8.13
2017-07-25T04:15:19.688Z,7.60
2017-07-25T04:17:47.138Z,9.07
2017-07-25T04:20:14.629Z,8.40
2017-07-25T04:22:42.124Z,9.90
2017-07-25T04:25:09.590Z,8.90
2017-07-25T04:27:37.081Z,10.60
2017-07-25T04:30:05.502Z,10.10
2017-07-25T04:32:32.968Z,9.20
2017-07-25T04:35:00.457Z,12.03
2017-07-25T04:37:27.924Z,10.60
2017-07-25T04:39:55.387Z,9.60
2017-07-25T04:42:22.866Z,12.93
2017-07-25T04:44:50.339Z,10.43
2017-07-25T04:47:17.812Z,12.57
2017-07-25T04:49:45.307Z,9.80
2017-07-25T04:52:12.762Z,10.63
2017-07-25T04:54:41.000Z,11.07
2017-07-25T04:57:08.478Z,11.23
2017-07-25T04:59:35.943Z,12.47
2017-07-25T05:02:03.413Z,11.57
2017-07-25T05:04:31.671Z,8.97
2017-07-25T05:06:59.144Z,8.47
2017-07-25T05:09:27.367Z,8.87
2017-07-25T05:11:54.832Z,8.53
2017-07-25T05:14:22.378Z,8.13
2017-07-25T05:16:49.840Z,8.30
2017-07-25T05:19:17.336Z,8.10
2017-07-25T05:21:44.800Z,7.63
2017-07-25T05:24:12.264Z,8.70
2017-07-25T05:26:40.495Z,7.10
2017-07-25T05:29:07.972Z,7.87
2017-07-25T05:31:35.431Z,7.87
2017-07-25T05:34:02.904Z,8.00
2017-07-25T05:36:31.131Z,9.47
2017-07-25T05:38:58.628Z,8.80
2017-07-25T05:41:26.132Z,8.50
2017-07-25T05:43:53.594Z,8.10
2017-07-25T05:46:21.050Z,9.20
2017-07-25T05:48:48.517Z,8.33
2017-07-25T05:51:15.982Z,9.20
2017-07-25T05:53:43.486Z,10.80
2017-07-25T05:56:11.723Z,9.80
2017-07-25T05:58:39.186Z,7.60
2017-07-25T06:01:14.617Z,6.27
2017-07-25T06:03:42.086Z,6.37
2017-07-25T06:06:09.545Z,5.33
2017-07-25T06:08:37.039Z,4.57
2017-07-25T06:11:05.259Z,4.73
2017-07-25T06:13:32.724Z,5.17
2017-07-25T06:16:00.193Z,4.20
2017-07-25T06:18:27.651Z,3.30
2017-07-25T06:20:55.118Z,3.90
2017-07-25T06:23:22.580Z,4.80
2017-07-25T06:25:50.034Z,3.70
2017-07-25T06:28:18.355Z,4.20
2017-07-25T06:30:45.810Z,3.90
2017-07-25T06:33:13.271Z,3.80
2017-07-25T06:35:40.741Z,4.30
2017-07-25T06:38:08.216Z,4.57
2017-07-25T06:40:35.678Z,4.87
2017-07-25T06:43:03.129Z,3.73
2017-07-25T06:45:30.652Z,5.23
2017-07-25T06:47:58.111Z,4.40
2017-07-25T06:50:25.570Z,4.47
2017-07-25T06:52:53.038Z,5.60
2017-07-25T06:55:20.511Z,4.20
2017-07-25T06:57:47.972Z,4.07
2017-07-25T07:00:15.436Z,4.07
2017-07-25T07:02:42.896Z,3.50
2017-07-25T07:05:10.355Z,3.50
2017-07-25T07:07:37.811Z,2.80
2017-07-25T07:10:05.272Z,3.47
2017-07-25T07:12:32.738Z,4.00
2017-07-25T07:15:00.972Z,4.03
2017-07-25T07:17:28.427Z,3.87
2017-07-25T07:19:55.902Z,3.00
2017-07-25T07:22:23.365Z,3.60
2017-07-25T07:24:50.830Z,4.30
2017-07-25T07:27:18.281Z,2.97
2017-07-25T07:29:45.747Z,3.80
2017-07-25T07:32:13.976Z,3.97
2017-07-25T07:34:41.437Z,3.37
2017-07-25T07:37:08.899Z,4.00
2017-07-25T07:39:36.360Z,3.30
2017-07-25T07:42:03.823Z,3.13
2017-07-25T07:44:31.296Z,3.70
2017-07-25T07:46:58.778Z,3.20
2017-07-25T07:49:26.247Z,3.20
2017-07-25T07:51:53.722Z,3.50
2017-07-25T07:54:21.184Z,3.60
2017-07-25T07:56:48.651Z,3.93
2017-07-25T07:59:16.110Z,4.00
2017-07-25T08:01:43.589Z,4.67
2017-07-25T08:04:11.031Z,4.00
2017-07-25T08:06:38.511Z,3.67
2017-07-25T08:09:05.955Z,2.80
2017-07-25T08:11:33.415Z,2.70
2017-07-25T08:14:00.891Z,2.00
2017-07-25T08:16:28.338Z,2.13
2017-07-25T08:18:56.591Z,1.67
2017-07-25T08:21:24.076Z,2.00
2017-07-25T08:23:51.530Z,2.10
2017-07-25T08:26:19.808Z,1.80
2017-07-25T08:28:48.047Z,1.80
2017-07-25T08:31:15.508Z,1.70
2017-07-25T08:33:42.961Z,1.57
2017-07-25T08:36:10.442Z,1.60
2017-07-25T08:38:37.890Z,1.53
2017-07-25T08:41:05.350Z,1.60
2017-07-25T08:43:32.811Z,1.80
2017-07-25T08:46:01.031Z,1.70
2017-07-25T08:48:28.490Z,1.20
2017-07-25T08:50:55.977Z,1.23
2017-07-25T08:53:23.438Z,1.90
2017-07-25T08:55:50.903Z,1.70
2017-07-25T08:58:18.525Z,1.60
2017-07-25T09:00:45.979Z,1.40
2017-07-25T09:03:13.436Z,1.90
2017-07-25T09:05:40.899Z,1.47
2017-07-25T09:08:08.395Z,1.63
2017-07-25T09:10:35.855Z,2.10
2017-07-25T09:13:03.328Z,1.30
2017-07-25T09:15:30.780Z,1.40
2017-07-25T09:17:59.007Z,1.83
2017-07-25T09:20:26.470Z,1.50
2017-07-25T09:22:55.208Z,2.40
2017-07-25T09:25:22.672Z,2.03
2017-07-25T09:27:50.167Z,1.20
2017-07-25T09:30:17.636Z,2.37
2017-07-25T09:32:45.086Z,1.60
2017-07-25T09:35:12.567Z,1.57
2017-07-25T09:37:40.024Z,2.00
2017-07-25T09:40:08.287Z,1.50
2017-07-25T09:42:35.749Z,1.20
2017-07-25T09:45:03.214Z,1.87
2017-07-25T09:47:31.441Z,1.57
2017-07-25T09:49:59.047Z,1.73
2017-07-25T09:52:26.527Z,1.60
2017-07-25T09:54:53.987Z,1.53
2017-07-25T09:57:21.481Z,1.60
2017-07-25T09:59:48.972Z,1.50
2017-07-25T10:02:16.473Z,1.30
2017-07-25T10:04:43.948Z,1.60
2017-07-25T10:07:11.417Z,1.40
2017-07-25T10:09:38.864Z,1.60
2017-07-25T10:12:06.356Z,1.50
2017-07-25T10:14:33.806Z,2.37
2017-07-25T10:17:01.268Z,1.73
2017-07-25T10:19:28.737Z,1.23
2017-07-25T10:21:56.199Z,1.67
2017-07-25T10:24:23.652Z,1.40
2017-07-25T10:26:51.123Z,1.53
2017-07-25T10:29:18.616Z,1.43
2017-07-25T10:31:46.105Z,1.50
2017-07-25T10:34:13.563Z,1.77
2017-07-25T10:36:41.035Z,1.43
2017-07-25T10:39:08.491Z,1.40
2017-07-25T10:41:35.972Z,1.57
2017-07-25T10:44:03.417Z,1.20
2017-07-25T10:46:30.880Z,1.50
2017-07-25T10:48:58.343Z,2.00
2017-07-25T10:51:25.914Z,1.80
2017-07-25T10:53:53.357Z,1.40
2017-07-25T10:56:21.954Z,2.53
2017-07-25T10:58:49.415Z,1.53
2017-07-25T11:01:16.935Z,1.63
2017-07-25T11:03:44.400Z,1.63
2017-07-25T11:06:11.858Z,2.07
2017-07-25T11:08:39.315Z,1.70
2017-07-25T11:11:06.783Z,1.27
2017-07-25T11:13:34.238Z,1.30
2017-07-25T11:16:01.723Z,1.47
2017-07-25T11:18:29.171Z,1.47
2017-07-25T11:20:56.665Z,1.17
2017-07-25T11:23:24.129Z,1.03
2017-07-25T11:25:51.634Z,1.27
2017-07-25T11:28:19.112Z,1.57
2017-07-25T11:30:46.606Z,1.30
2017-07-25T11:33:14.118Z,1.13
2017-07-25T11:35:41.726Z,1.57
2017-07-25T11:38:10.038Z,1.20
2017-07-25T11:40:37.549Z,1.37
2017-07-25T11:43:05.039Z,1.20
2017-07-25T11:45:32.487Z,1.60
2017-07-25T11:48:00.735Z,1.30
2017-07-25T11:50:28.202Z,1.50
2017-07-25T11:52:55.680Z,1.43
2017-07-25T11:55:23.143Z,1.60
2017-07-25T11:57:50.637Z,1.30
2017-07-25T12:00:18.162Z,1.40
2017-07-25T12:02:45.688Z,1.60
2017-07-25T12:05:14.048Z,1.83
2017-07-25T12:07:41.503Z,1.50
2017-07-25T12:10:09.020Z,1.50
2017-07-25T12:12:36.515Z,1.70
2017-07-25T12:15:03.974Z,1.63
2017-07-25T12:17:31.435Z,1.30
2017-07-25T12:19:58.894Z,1.40
2017-07-25T12:22:26.358Z,1.00
2017-07-25T12:24:53.827Z,1.50
2017-07-25T12:27:21.301Z,1.30
2017-07-25T12:29:48.763Z,1.27
2017-07-25T12:32:16.236Z,1.50
2017-07-25T12:34:43.696Z,1.50
2017-07-25T12:37:11.155Z,1.40
2017-07-25T12:39:38.676Z,1.50
2017-07-25T12:42:06.171Z,1.73
2017-07-25T12:44:33.675Z,1.50
2017-07-25T12:47:01.136Z,1.87
2017-07-25T12:49:28.607Z,2.00
2017-07-25T12:51:56.063Z,1.60
2017-07-25T12:54:23.549Z,1.77
2017-07-25T12:56:51.024Z,1.73
2017-07-25T12:59:18.482Z,1.60
2017-07-25T13:01:57.891Z,1.80
2017-07-25T13:04:25.347Z,1.90
2017-07-25T13:06:52.807Z,1.77
2017-07-25T13:09:20.280Z,1.70
2017-07-25T13:11:47.747Z,2.00
2017-07-25T13:14:15.203Z,1.20
2017-07-25T13:16:42.663Z,1.90
2017-07-25T13:19:10.125Z,1.40
2017-07-25T13:21:37.579Z,1.63
2017-07-25T13:24:05.048Z,2.40
2017-07-25T13:26:32.523Z,1.70
2017-07-25T13:29:00.754Z,1.60
2017-07-25T13:31:28.259Z,1.80
2017-07-25T13:33:55.751Z,1.97
2017-07-25T13:36:23.219Z,1.80
2017-07-25T13:38:50.720Z,1.80
2017-07-25T13:41:18.164Z,1.60
2017-07-25T13:43:45.632Z,1.57
2017-07-25T13:46:13.115Z,1.73
2017-07-25T13:48:40.575Z,1.40
2017-07-25T13:51:08.047Z,1.67
2017-07-25T13:53:35.517Z,2.47
2017-07-25T13:56:02.984Z,2.03
2017-07-25T13:58:30.451Z,2.00
2017-07-25T14:00:57.919Z,1.80
2017-07-25T14:03:25.392Z,2.33
2017-07-25T14:05:53.620Z,1.63
2017-07-25T14:08:21.083Z,1.73
2017-07-25T14:10:48.543Z,2.20
2017-07-25T14:13:16.039Z,2.30
2017-07-25T14:15:43.509Z,1.63
2017-07-25T14:18:11.758Z,1.57
2017-07-25T14:20:39.215Z,1.70
2017-07-25T14:23:06.747Z,2.90
2017-07-25T14:25:34.207Z,1.90
2017-07-25T14:28:01.667Z,2.00
2017-07-25T14:30:29.167Z,1.80
2017-07-25T14:32:56.648Z,2.07
2017-07-25T14:35:24.099Z,2.03
2017-07-25T14:37:51.574Z,2.00
2017-07-25T14:40:19.048Z,2.27
2017-07-25T14:42:46.499Z,2.53
2017-07-25T14:45:13.968Z,2.30
2017-07-25T14:47:41.425Z,1.97
2017-07-25T14:50:09.026Z,1.87
2017-07-25T14:52:36.516Z,1.77
2017-07-25T14:55:03.979Z,3.50
2017-07-25T14:57:31.470Z,2.30
2017-07-25T14:59:59.699Z,7.30
2017-07-25T15:02:27.160Z,2.23
2017-07-25T15:04:54.631Z,2.07
2017-07-25T15:07:22.164Z,3.27
2017-07-25T15:09:49.658Z,2.10
2017-07-25T15:12:17.228Z,2.40
2017-07-25T15:14:44.694Z,2.63
2017-07-25T15:17:12.150Z,2.30
2017-07-25T15:19:40.375Z,2.37
2017-07-25T15:22:07.852Z,3.57
2017-07-25T15:24:35.310Z,2.70
2017-07-25T15:27:02.809Z,8.60
2017-07-25T15:29:31.047Z,6.70
2017-07-25T15:31:58.528Z,3.03
2017-07-25T15:34:26.768Z,2.93
2017-07-25T15:36:54.235Z,2.70
2017-07-25T15:39:21.699Z,2.90
2017-07-25T15:41:49.158Z,2.80
2017-07-25T15:44:16.632Z,2.37
2017-07-25T15:46:44.088Z,2.80
2017-07-25T15:49:12.314Z,2.60
2017-07-25T15:51:39.807Z,3.33
2017-07-25T15:54:07.315Z,2.93
2017-07-25T15:56:34.770Z,2.77
2017-07-25T15:59:02.243Z,3.10
2017-07-25T16:01:29.816Z,2.77
2017-07-25T16:03:57.271Z,3.30
2017-07-25T16:06:25.055Z,3.20
2017-07-25T16:08:52.523Z,3.40
2017-07-25T16:11:20.793Z,4.00
2017-07-25T16:13:48.259Z,3.37
2017-07-25T16:16:15.724Z,3.37
2017-07-25T16:18:43.208Z,3.20
2017-07-25T16:21:10.660Z,3.40
2017-07-25T16:23:38.131Z,3.30
2017-07-25T16:26:05.608Z,3.47
2017-07-25T16:28:33.063Z,3.83
2017-07-25T16:31:00.530Z,3.27
2017-07-25T16:33:27.994Z,3.50
2017-07-25T16:35:55.454Z,4.40
2017-07-25T16:38:22.911Z,4.60
2017-07-25T16:40:50.371Z,3.67
2017-07-25T16:43:18.596Z,3.60
2017-07-25T16:45:46.099Z,3.83
2017-07-25T16:48:13.581Z,3.60
2017-07-25T16:50:41.032Z,4.23
2017-07-25T16:53:08.506Z,4.27
2017-07-25T16:55:35.979Z,4.33
2017-07-25T16:58:03.471Z,4.23
2017-07-25T17:00:31.030Z,3.93
2017-07-25T17:02:58.478Z,3.27
2017-07-25T17:05:25.948Z,4.20
2017-07-25T17:07:53.730Z,5.00
2017-07-25T17:10:21.962Z,3.93
2017-07-25T17:12:49.427Z,4.13
2017-07-25T17:15:16.919Z,4.43
2017-07-25T17:17:44.684Z,3.43
2017-07-25T17:20:12.186Z,3.50
2017-07-25T17:22:39.675Z,4.17
2017-07-25T17:25:07.925Z,4.10
2017-07-25T17:27:35.375Z,4.23
2017-07-25T17:30:02.852Z,4.47
2017-07-25T17:32:30.317Z,4.50
2017-07-25T17:34:57.780Z,4.43
2017-07-25T17:37:25.294Z,5.13
2017-07-25T17:39:52.837Z,4.07
2017-07-25T17:42:20.298Z,4.23
2017-07-25T17:44:47.796Z,4.20
2017-07-25T17:47:15.264Z,5.00
2017-07-25T17:49:42.733Z,4.70
2017-07-25T17:52:10.208Z,4.43
2017-07-25T17:54:37.701Z,4.70
2017-07-25T17:57:05.175Z,4.00
2017-07-25T17:59:32.648Z,4.63
2017-07-25T18:02:00.922Z,4.00
2017-07-25T18:04:28.376Z,5.37
2017-07-25T18:06:55.847Z,4.20
2017-07-25T18:09:23.346Z,4.23
2017-07-25T18:11:50.824Z,4.80
2017-07-25T18:14:18.311Z,4.43
2017-07-25T18:16:45.768Z,5.27
2017-07-25T18:19:13.243Z,5.40
2017-07-25T18:21:41.491Z,5.90
2017-07-25T18:24:09.031Z,6.20
2017-07-25T18:26:36.523Z,6.30
2017-07-25T18:29:03.994Z,6.70
2017-07-25T18:31:32.216Z,7.13
2017-07-25T18:33:59.669Z,7.30
2017-07-25T18:36:27.156Z,8.47
2017-07-25T18:38:54.620Z,7.63
2017-07-25T18:41:22.098Z,6.30
2017-07-25T18:43:49.578Z,7.77
2017-07-25T18:46:17.048Z,6.90
2017-07-25T18:48:44.535Z,6.70
2017-07-25T18:51:12.000Z,6.97
2017-07-25T18:53:39.464Z,6.30
2017-07-25T18:56:06.956Z,7.10
2017-07-25T18:58:34.420Z,9.60
2017-07-25T19:01:01.889Z,6.80
2017-07-25T19:03:29.377Z,8.27
2017-07-25T19:05:56.833Z,7.37
2017-07-25T19:08:24.317Z,8.00
2017-07-25T19:10:52.567Z,6.97
2017-07-25T19:13:20.052Z,7.33
2017-07-25T19:15:48.552Z,7.70
2017-07-25T19:18:16.754Z,7.97
2017-07-25T19:20:44.403Z,7.70
2017-07-25T19:23:11.877Z,7.00
2017-07-25T19:25:39.436Z,6.90
2017-07-25T19:28:07.159Z,7.73
2017-07-25T19:30:34.834Z,7.70
2017-07-25T19:33:02.354Z,8.37
2017-07-25T19:35:30.588Z,6.00
2017-07-25T19:37:58.069Z,7.40
2017-07-25T19:40:25.601Z,7.30
2017-07-25T19:45:27.815Z,7.00
2017-07-25T19:47:55.418Z,7.20
2017-07-25T19:50:22.881Z,6.23
2017-07-25T19:52:50.354Z,7.17
2017-07-25T19:55:17.842Z,6.57
2017-07-25T19:57:45.323Z,8.53
2017-07-25T20:00:13.638Z,8.60
2017-07-25T20:02:41.132Z,7.33
2017-07-25T20:05:08.607Z,7.17
2017-07-25T20:07:36.072Z,6.50
2017-07-25T20:10:04.326Z,6.60
2017-07-25T20:12:31.799Z,7.83
2017-07-25T20:15:00.047Z,8.00
2017-07-25T20:17:27.535Z,7.53
2017-07-25T20:19:55.789Z,7.00
2017-07-25T20:22:23.248Z,7.33
2017-07-25T20:24:50.745Z,7.33
2017-07-25T20:27:22.184Z,7.17
2017-07-25T20:29:49.707Z,6.87
2017-07-25T20:32:17.252Z,7.40
2017-07-25T20:34:44.740Z,8.03
2017-07-25T20:37:12.988Z,6.97
2017-07-25T20:39:40.644Z,7.43
2017-07-25T20:42:08.447Z,8.03
2017-07-25T20:44:38.883Z,7.30
2017-07-25T20:47:07.886Z,7.20
2017-07-25T20:49:35.466Z,6.40
2017-07-25T20:52:02.951Z,7.70
2017-07-25T20:54:30.422Z,8.40
2017-07-25T20:56:57.892Z,8.50
2017-07-25T20:59:26.464Z,7.97
2017-07-25T21:01:54.001Z,8.10
2017-07-25T21:04:21.455Z,8.30
2017-07-25T21:06:49.034Z,8.50
2017-07-25T21:09:16.540Z,7.47
2017-07-25T21:11:44.034Z,6.93
2017-07-25T21:14:11.597Z,8.10
2017-07-25T21:16:39.076Z,7.47
2017-07-25T21:19:06.566Z,9.17
2017-07-25T21:21:34.119Z,8.73
2017-07-25T21:24:01.703Z,8.60
2017-07-25T21:26:29.283Z,9.67
2017-07-25T21:28:56.793Z,10.37
2017-07-25T21:31:24.356Z,9.70
2017-07-25T21:33:51.847Z,9.63
2017-07-25T21:36:19.316Z,8.83
2017-07-25T21:38:46.870Z,10.00
2017-07-25T21:41:14.335Z,9.17
2017-07-25T21:43:41.814Z,9.10
2017-07-25T21:46:10.066Z,10.37
2017-07-25T21:48:37.555Z,8.80
2017-07-25T21:51:05.826Z,10.60
2017-07-25T21:53:34.103Z,9.57
2017-07-25T21:56:02.541Z,10.63
2017-07-25T21:58:30.109Z,10.53
2017-07-25T22:00:57.599Z,11.43
2017-07-25T22:03:37.672Z,8.37
2017-07-25T22:06:05.147Z,9.37
2017-07-25T22:08:32.609Z,9.30
2017-07-25T22:11:00.108Z,9.87
2017-07-25T22:13:28.512Z,9.03
2017-07-25T22:15:55.975Z,10.20
2017-07-25T22:18:23.468Z,10.73
2017-07-25T22:20:50.950Z,9.27
2017-07-25T22:23:18.487Z,10.03
2017-07-25T22:25:46.098Z,8.53
2017-07-25T22:28:14.422Z,10.73
2017-07-25T22:30:41.892Z,10.57
2017-07-25T22:33:09.358Z,11.43
2017-07-25T22:35:36.843Z,10.43
2017-07-25T22:38:04.313Z,10.90
2017-07-25T22:40:31.818Z,10.73
2017-07-25T22:42:59.343Z,12.07
2017-07-25T22:45:26.835Z,12.10
2017-07-25T22:47:54.315Z,10.77
2017-07-25T22:50:22.568Z,10.57
2017-07-25T22:52:50.039Z,11.30
2017-07-25T22:55:17.552Z,10.77
2017-07-25T22:57:45.144Z,8.67
2017-07-25T23:00:12.625Z,10.73
2017-07-25T23:02:40.885Z,11.03
2017-07-25T23:05:08.354Z,9.63
2017-07-25T23:07:36.716Z,10.90
2017-07-25T23:10:04.198Z,10.90
2017-07-25T23:12:32.439Z,9.77
2017-07-25T23:14:59.931Z,10.33
2017-07-25T23:17:28.190Z,11.00
2017-07-25T23:19:55.666Z,12.70
2017-07-25T23:22:23.967Z,12.53
2017-07-25T23:24:51.442Z,11.73
2017-07-25T23:27:18.991Z,11.80
2017-07-25T23:29:46.476Z,11.30
2017-07-25T23:32:13.982Z,10.93
2017-07-25T23:34:41.474Z,10.10
2017-07-25T23:37:08.960Z,15.00
2017-07-25T23:39:36.488Z,10.93
2017-07-25T23:42:03.969Z,12.00
2017-07-25T23:44:31.451Z,10.03
2017-07-25T23:46:59.708Z,10.63
2017-07-25T23:49:27.249Z,10.07
2017-07-25T23:51:54.735Z,9.87
2017-07-25T23:54:23.035Z,10.10
2017-07-25T23:56:50.529Z,10.20
2017-07-25T23:59:18.068Z,9.87
